sensor_id;sensor_type;location;lat;lon;timestamp;pressure;altitude;pressure_sealevel;temperature;humidity
47670;BME280;33408;52.062;11.722;2023-02-21T00:02:31;101047.19;;;8.79;100.00
47670;BME280;33408;52.062;11.722;2023-02-21T00:05:17;101038.56;;;8.81;100.00
47670;BME280;33408;52.062;11.722;2023-02-21T00:08:01;101050.66;;;8.81;100.00
47670;BME280;33408;52.062;11.722;2023-02-21T00:10:45;101061.84;;;8.80;100.00
47670;BME280;33408;52.062;11.722;2023-02-21T00:13:29;101059.25;;;8.81;100.00
47670;BME280;33408;52.062;11.722;2023-02-21T00:16:15;101065.28;;;8.83;100.00
47670;BME280;33408;52.062;11.722;2023-02-21T00:18:59;101060.09;;;8.85;100.00
47670;BME280;33408;52.062;11.722;2023-02-21T00:21:45;101059.25;;;8.83;100.00
47670;BME280;33408;52.062;11.722;2023-02-21T00:24:29;101067.00;;;8.86;100.00
47670;BME280;33408;52.062;11.722;2023-02-21T00:27:12;101067.00;;;8.83;100.00
47670;BME280;33408;52.062;11.722;2023-02-21T00:29:57;101064.41;;;8.83;100.00
47670;BME280;33408;52.062;11.722;2023-02-21T00:32:41;101067.00;;;8.81;100.00
47670;BME280;33408;52.062;11.722;2023-02-21T00:35:25;101074.78;;;8.81;100.00
47670;BME280;33408;52.062;11.722;2023-02-21T00:38:11;101070.44;;;8.82;100.00
47670;BME280;33408;52.062;11.722;2023-02-21T00:40:55;101068.75;;;8.78;100.00
47670;BME280;33408;52.062;11.722;2023-02-21T00:43:39;101064.41;;;8.83;100.00
47670;BME280;33408;52.062;11.722;2023-02-21T00:46:24;101075.59;;;8.83;100.00
47670;BME280;33408;52.062;11.722;2023-02-21T00:49:08;101074.78;;;8.80;100.00
47670;BME280;33408;52.062;11.722;2023-02-21T00:51:52;101073.88;;;8.85;100.00
47670;BME280;33408;52.062;11.722;2023-02-21T00:54:37;101060.91;;;8.88;100.00
47670;BME280;33408;52.062;11.722;2023-02-21T00:57:21;101073.00;;;8.85;100.00
47670;BME280;33408;52.062;11.722;2023-02-21T01:00:08;101071.28;;;8.87;100.00
47670;BME280;33408;52.062;11.722;2023-02-21T01:02:52;101055.78;;;8.84;100.00
47670;BME280;33408;52.062;11.722;2023-02-21T01:05:37;101073.03;;;8.82;100.00
47670;BME280;33408;52.062;11.722;2023-02-21T01:08:21;101055.81;;;8.81;100.00
47670;BME280;33408;52.062;11.722;2023-02-21T01:11:06;101064.44;;;8.80;100.00
47670;BME280;33408;52.062;11.722;2023-02-21T01:13:56;101054.97;;;8.77;100.00
47670;BME280;33408;52.062;11.722;2023-02-21T01:16:40;101055.84;;;8.78;100.00
47670;BME280;33408;52.062;11.722;2023-02-21T01:19:25;101053.25;;;8.76;100.00
47670;BME280;33408;52.062;11.722;2023-02-21T01:22:09;101057.53;;;8.79;100.00
47670;BME280;33408;52.062;11.722;2023-02-21T01:24:54;101061.84;;;8.81;100.00
47670;BME280;33408;52.062;11.722;2023-02-21T01:27:39;101065.28;;;8.79;100.00
47670;BME280;33408;52.062;11.722;2023-02-21T01:30:23;101067.84;;;8.82;100.00
47670;BME280;33408;52.062;11.722;2023-02-21T01:33:08;101076.53;;;8.76;100.00
47670;BME280;33408;52.062;11.722;2023-02-21T01:35:52;101070.47;;;8.79;100.00
47670;BME280;33408;52.062;11.722;2023-02-21T01:38:36;101060.13;;;8.77;100.00
47670;BME280;33408;52.062;11.722;2023-02-21T01:41:20;101069.59;;;8.80;100.00
47670;BME280;33408;52.062;11.722;2023-02-21T01:44:26;101062.72;;;8.79;100.00
47670;BME280;33408;52.062;11.722;2023-02-21T01:47:10;101061.00;;;8.79;100.00
47670;BME280;33408;52.062;11.722;2023-02-21T01:49:55;101058.41;;;8.81;100.00
47670;BME280;33408;52.062;11.722;2023-02-21T01:52:39;101043.75;;;8.81;100.00
47670;BME280;33408;52.062;11.722;2023-02-21T01:55:23;101049.81;;;8.74;100.00
47670;BME280;33408;52.062;11.722;2023-02-21T01:58:08;101043.78;;;8.76;100.00
47670;BME280;33408;52.062;11.722;2023-02-21T02:00:54;101039.44;;;8.79;100.00
47670;BME280;33408;52.062;11.722;2023-02-21T02:03:39;101039.44;;;8.79;100.00
47670;BME280;33408;52.062;11.722;2023-02-21T02:06:24;101036.88;;;8.77;100.00
47670;BME280;33408;52.062;11.722;2023-02-21T02:09:19;101029.13;;;8.75;100.00
47670;BME280;33408;52.062;11.722;2023-02-21T02:12:15;101024.81;;;8.79;100.00
47670;BME280;33408;52.062;11.722;2023-02-21T02:17:51;101017.91;;;8.78;100.00
47670;BME280;33408;52.062;11.722;2023-02-21T02:20:52;101014.47;;;8.78;100.00
47670;BME280;33408;52.062;11.722;2023-02-21T02:29:43;100998.97;;;8.79;100.00
47670;BME280;33408;52.062;11.722;2023-02-21T02:32:32;101014.47;;;8.81;100.00
47670;BME280;33408;52.062;11.722;2023-02-21T02:35:03;101001.53;;;8.81;100.00
47670;BME280;33408;52.062;11.722;2023-02-21T02:37:36;100987.75;;;8.77;100.00
47670;BME280;33408;52.062;11.722;2023-02-21T02:40:14;101013.63;;;8.75;100.00
47670;BME280;33408;52.062;11.722;2023-02-21T02:42:50;101003.28;;;8.75;100.00
47670;BME280;33408;52.062;11.722;2023-02-21T02:45:25;101002.44;;;8.73;100.00
47670;BME280;33408;52.062;11.722;2023-02-21T02:47:58;101007.59;;;8.75;100.00
47670;BME280;33408;52.062;11.722;2023-02-21T02:50:28;100994.69;;;8.73;100.00
47670;BME280;33408;52.062;11.722;2023-02-21T02:53:00;100998.13;;;8.72;100.00
47670;BME280;33408;52.062;11.722;2023-02-21T02:55:36;100994.69;;;8.69;100.00
47670;BME280;33408;52.062;11.722;2023-02-21T02:58:05;100999.00;;;8.71;100.00
47670;BME280;33408;52.062;11.722;2023-02-21T03:00:36;100994.69;;;8.72;100.00
47670;BME280;33408;52.062;11.722;2023-02-21T03:03:17;100998.97;;;8.76;100.00
47670;BME280;33408;52.062;11.722;2023-02-21T03:06:01;100993.84;;;8.71;100.00
47670;BME280;33408;52.062;11.722;2023-02-21T03:08:38;101004.16;;;8.74;100.00
47670;BME280;33408;52.062;11.722;2023-02-21T03:11:09;101001.59;;;8.73;100.00
47670;BME280;33408;52.062;11.722;2023-02-21T03:13:42;101001.56;;;8.76;100.00
47670;BME280;33408;52.062;11.722;2023-02-21T03:16:17;100998.13;;;8.72;100.00
47670;BME280;33408;52.062;11.722;2023-02-21T03:18:47;100999.00;;;8.74;100.00
47670;BME280;33408;52.062;11.722;2023-02-21T03:21:19;100987.75;;;8.79;100.00
47670;BME280;33408;52.062;11.722;2023-02-21T03:23:50;100985.19;;;8.75;100.00
47670;BME280;33408;52.062;11.722;2023-02-21T03:26:17;100982.59;;;8.77;100.00
47670;BME280;33408;52.062;11.722;2023-02-21T03:28:45;100988.63;;;8.81;100.00
47670;BME280;33408;52.062;11.722;2023-02-21T03:31:16;100991.22;;;8.79;100.00
47670;BME280;33408;52.062;11.722;2023-02-21T03:33:45;100983.47;;;8.78;100.00
47670;BME280;33408;52.062;11.722;2023-02-21T03:36:13;100999.81;;;8.81;100.00
47670;BME280;33408;52.062;11.722;2023-02-21T03:38:41;100986.00;;;8.82;100.00
47670;BME280;33408;52.062;11.722;2023-02-21T03:41:09;100989.47;;;8.81;100.00
47670;BME280;33408;52.062;11.722;2023-02-21T03:43:37;100990.31;;;8.82;100.00
47670;BME280;33408;52.062;11.722;2023-02-21T03:46:04;100990.31;;;8.82;100.00
47670;BME280;33408;52.062;11.722;2023-02-21T03:48:30;101004.97;;;8.83;100.00
47670;BME280;33408;52.062;11.722;2023-02-21T03:50:57;100984.28;;;8.83;100.00
47670;BME280;33408;52.062;11.722;2023-02-21T03:53:23;100997.19;;;8.86;100.00
47670;BME280;33408;52.062;11.722;2023-02-21T03:55:51;101000.63;;;8.86;100.00
47670;BME280;33408;52.062;11.722;2023-02-21T03:58:18;100998.03;;;8.85;100.00
47670;BME280;33408;52.062;11.722;2023-02-21T04:00:45;101004.97;;;8.83;100.00
47670;BME280;33408;52.062;11.722;2023-02-21T04:03:12;100995.44;;;8.88;100.00
47670;BME280;33408;52.062;11.722;2023-02-21T04:05:38;100992.03;;;8.86;100.00
47670;BME280;33408;52.062;11.722;2023-02-21T04:08:05;100998.03;;;8.85;100.00
47670;BME280;33408;52.062;11.722;2023-02-21T04:10:31;100995.47;;;8.85;100.00
47670;BME280;33408;52.062;11.722;2023-02-21T04:12:59;100999.78;;;8.86;100.00
47670;BME280;33408;52.062;11.722;2023-02-21T04:15:26;100993.75;;;8.82;100.00
47670;BME280;33408;52.062;11.722;2023-02-21T04:17:52;101000.59;;;8.89;100.00
47670;BME280;33408;52.062;11.722;2023-02-21T04:20:19;100992.03;;;8.86;100.00
47670;BME280;33408;52.062;11.722;2023-02-21T04:22:46;100982.50;;;8.88;100.00
47670;BME280;33408;52.062;11.722;2023-02-21T04:25:13;100990.28;;;8.88;100.00
47670;BME280;33408;52.062;11.722;2023-02-21T04:27:40;100995.44;;;8.88;100.00
47670;BME280;33408;52.062;11.722;2023-02-21T04:30:09;100998.00;;;8.91;100.00
47670;BME280;33408;52.062;11.722;2023-02-21T04:32:36;100996.28;;;8.91;100.00
47670;BME280;33408;52.062;11.722;2023-02-21T04:35:03;101004.00;;;8.93;100.00
47670;BME280;33408;52.062;11.722;2023-02-21T04:37:30;101004.03;;;8.91;100.00
47670;BME280;33408;52.062;11.722;2023-02-21T04:39:56;101011.75;;;8.96;100.00
47670;BME280;33408;52.062;11.722;2023-02-21T04:42:23;100992.84;;;8.91;100.00
47670;BME280;33408;52.062;11.722;2023-02-21T04:44:50;101002.28;;;8.95;100.00
47670;BME280;33408;52.062;11.722;2023-02-21T04:47:18;100999.69;;;8.95;100.00
47670;BME280;33408;52.062;11.722;2023-02-21T04:49:44;101001.41;;;8.94;100.00
47670;BME280;33408;52.062;11.722;2023-02-21T04:52:16;100998.88;;;8.90;100.00
47670;BME280;33408;52.062;11.722;2023-02-21T04:54:44;100990.28;;;8.85;100.00
47670;BME280;33408;52.062;11.722;2023-02-21T04:57:11;100984.28;;;8.83;100.00
47670;BME280;33408;52.062;11.722;2023-02-21T04:59:37;100991.16;;;8.82;100.00
47670;BME280;33408;52.062;11.722;2023-02-21T05:02:04;101001.56;;;8.76;100.00
47670;BME280;33408;52.062;11.722;2023-02-21T05:04:32;100996.41;;;8.73;100.00
47670;BME280;33408;52.062;11.722;2023-02-21T05:06:59;101002.44;;;8.73;100.00
47670;BME280;33408;52.062;11.722;2023-02-21T05:09:25;101004.19;;;8.71;100.00
47670;BME280;33408;52.062;11.722;2023-02-21T05:11:52;100999.03;;;8.68;100.00
47670;BME280;33408;52.062;11.722;2023-02-21T05:14:18;100993.84;;;8.68;100.00
47670;BME280;33408;52.062;11.722;2023-02-21T05:16:45;101005.06;;;8.67;100.00
47670;BME280;33408;52.062;11.722;2023-02-21T05:19:17;101009.38;;;8.65;100.00
47670;BME280;33408;52.062;11.722;2023-02-21T05:21:53;101008.53;;;8.66;100.00
47670;BME280;33408;52.062;11.722;2023-02-21T05:24:20;101005.06;;;8.67;100.00
47670;BME280;33408;52.062;11.722;2023-02-21T05:26:46;101007.66;;;8.61;100.00
47670;BME280;33408;52.062;11.722;2023-02-21T05:29:13;101007.66;;;8.63;100.00
47670;BME280;33408;52.062;11.722;2023-02-21T05:31:39;101005.94;;;8.65;100.00
47670;BME280;33408;52.062;11.722;2023-02-21T05:34:06;101012.00;;;8.61;100.00
47670;BME280;33408;52.062;11.722;2023-02-21T05:36:33;101014.56;;;8.62;100.00
47670;BME280;33408;52.062;11.722;2023-02-21T05:39:01;101005.97;;;8.63;100.00
47670;BME280;33408;52.062;11.722;2023-02-21T05:41:27;101019.72;;;8.65;100.00
47670;BME280;33408;52.062;11.722;2023-02-21T05:43:54;101018.88;;;8.63;100.00
47670;BME280;33408;52.062;11.722;2023-02-21T05:46:23;101024.91;;;8.64;100.00
47670;BME280;33408;52.062;11.722;2023-02-21T05:48:50;101024.03;;;8.66;100.00
47670;BME280;33408;52.062;11.722;2023-02-21T05:51:18;101027.44;;;8.70;100.00
47670;BME280;33408;52.062;11.722;2023-02-21T05:53:45;101026.59;;;8.68;100.00
47670;BME280;33408;52.062;11.722;2023-02-21T05:56:13;101039.47;;;8.72;100.00
47670;BME280;33408;52.062;11.722;2023-02-21T05:58:40;101042.94;;;8.70;100.00
47670;BME280;33408;52.062;11.722;2023-02-21T06:01:09;101046.38;;;8.72;100.00
47670;BME280;33408;52.062;11.722;2023-02-21T06:03:35;101048.13;;;8.71;100.00
47670;BME280;33408;52.062;11.722;2023-02-21T06:06:02;101050.69;;;8.71;100.00
47670;BME280;33408;52.062;11.722;2023-02-21T06:08:29;101052.41;;;8.72;100.00
47670;BME280;33408;52.062;11.722;2023-02-21T06:10:55;101061.03;;;8.71;100.00
47670;BME280;33408;52.062;11.722;2023-02-21T06:13:23;101062.72;;;8.75;100.00
47670;BME280;33408;52.062;11.722;2023-02-21T06:15:50;101064.44;;;8.78;100.00
47670;BME280;33408;52.062;11.722;2023-02-21T06:18:16;101062.72;;;8.77;100.00
47670;BME280;33408;52.062;11.722;2023-02-21T06:20:43;101061.84;;;8.78;100.00
47670;BME280;33408;52.062;11.722;2023-02-21T06:23:10;101067.03;;;8.78;100.00
47670;BME280;33408;52.062;11.722;2023-02-21T06:25:36;101071.28;;;8.82;100.00
47670;BME280;33408;52.062;11.722;2023-02-21T06:28:03;101076.47;;;8.84;100.00
47670;BME280;33408;52.062;11.722;2023-02-21T06:30:31;101068.69;;;8.88;100.00
47670;BME280;33408;52.062;11.722;2023-02-21T06:32:58;101073.00;;;8.86;100.00
47670;BME280;33408;52.062;11.722;2023-02-21T06:35:24;101079.91;;;8.87;100.00
47670;BME280;33408;52.062;11.722;2023-02-21T06:37:51;101079.00;;;8.90;100.00
47670;BME280;33408;52.062;11.722;2023-02-21T06:40:18;101072.97;;;8.91;100.00
47670;BME280;33408;52.062;11.722;2023-02-21T06:42:44;101079.91;;;8.90;100.00
47670;BME280;33408;52.062;11.722;2023-02-21T06:45:11;101071.25;;;8.90;100.00
47670;BME280;33408;52.062;11.722;2023-02-21T06:47:39;101078.13;;;8.94;100.00
47670;BME280;33408;52.062;11.722;2023-02-21T06:50:06;101089.34;;;8.90;100.00
47670;BME280;33408;52.062;11.722;2023-02-21T06:52:32;101080.75;;;8.91;100.00
47670;BME280;33408;52.062;11.722;2023-02-21T06:54:59;101087.56;;;8.98;100.00
47670;BME280;33408;52.062;11.722;2023-02-21T06:57:25;101093.66;;;8.96;100.00
47670;BME280;33408;52.062;11.722;2023-02-21T06:59:52;101095.41;;;8.92;100.00
47670;BME280;33408;52.062;11.722;2023-02-21T07:02:19;101095.34;;;8.95;100.00
47670;BME280;33408;52.062;11.722;2023-02-21T07:04:47;101101.41;;;8.96;100.00
47670;BME280;33408;52.062;11.722;2023-02-21T07:07:14;101102.25;;;8.99;100.00
47670;BME280;33408;52.062;11.722;2023-02-21T07:09:41;101101.38;;;8.99;100.00
47670;BME280;33408;52.062;11.722;2023-02-21T07:12:08;101105.66;;;9.01;100.00
47670;BME280;33408;52.062;11.722;2023-02-21T07:14:34;101107.38;;;9.04;100.00
47670;BME280;33408;52.062;11.722;2023-02-21T07:17:01;101097.88;;;9.07;100.00
47670;BME280;33408;52.062;11.722;2023-02-21T07:19:27;101114.25;;;9.06;100.00
47670;BME280;33408;52.062;11.722;2023-02-21T07:21:55;101113.38;;;9.07;100.00
47670;BME280;33408;52.062;11.722;2023-02-21T07:24:22;101109.91;;;9.15;100.00
47670;BME280;33408;52.062;11.722;2023-02-21T07:26:48;101116.81;;;9.12;100.00
47670;BME280;33408;52.062;11.722;2023-02-21T07:29:15;101115.94;;;9.13;100.00
47670;BME280;33408;52.062;11.722;2023-02-21T07:31:42;101115.97;;;9.09;100.00
47670;BME280;33408;52.062;11.722;2023-02-21T07:34:09;101119.38;;;9.16;100.00
47670;BME280;33408;52.062;11.722;2023-02-21T07:36:36;101117.69;;;9.13;100.00
47670;BME280;33408;52.062;11.722;2023-02-21T07:39:04;101121.97;;;9.12;100.00
47670;BME280;33408;52.062;11.722;2023-02-21T07:41:31;101119.34;;;9.19;100.00
47670;BME280;33408;52.062;11.722;2023-02-21T07:43:57;101121.09;;;9.20;100.00
47670;BME280;33408;52.062;11.722;2023-02-21T07:46:25;101122.75;;;9.27;100.00
47670;BME280;33408;52.062;11.722;2023-02-21T07:48:52;101119.31;;;9.25;100.00
47670;BME280;33408;52.062;11.722;2023-02-21T07:51:19;101124.44;;;9.36;100.00
47670;BME280;33408;52.062;11.722;2023-02-21T07:53:46;101115.75;;;9.38;100.00
47670;BME280;33408;52.062;11.722;2023-02-21T07:56:14;101117.50;;;9.39;100.00
47670;BME280;33408;52.062;11.722;2023-02-21T07:58:40;101114.91;;;9.39;100.00
47670;BME280;33408;52.062;11.722;2023-02-21T08:01:07;101131.28;;;9.38;100.00
47670;BME280;33408;52.062;11.722;2023-02-21T08:03:33;101117.50;;;9.39;100.00
47670;BME280;33408;52.062;11.722;2023-02-21T08:06:02;101133.00;;;9.41;100.00
47670;BME280;33408;52.062;11.722;2023-02-21T08:08:29;101134.75;;;9.40;100.00
47670;BME280;33408;52.062;11.722;2023-02-21T08:10:56;101136.41;;;9.47;100.00
47670;BME280;33408;52.062;11.722;2023-02-21T08:13:24;101136.44;;;9.44;100.00
47670;BME280;33408;52.062;11.722;2023-02-21T08:15:50;101145.91;;;9.47;100.00
47670;BME280;33408;52.062;11.722;2023-02-21T08:18:19;101139.84;;;9.49;100.00
47670;BME280;33408;52.062;11.722;2023-02-21T08:20:48;101136.38;;;9.51;100.00
47670;BME280;33408;52.062;11.722;2023-02-21T08:23:16;101143.22;;;9.56;100.00
47670;BME280;33408;52.062;11.722;2023-02-21T08:25:43;101150.16;;;9.56;100.00
47670;BME280;33408;52.062;11.722;2023-02-21T08:28:10;101151.00;;;9.56;100.00
47670;BME280;33408;52.062;11.722;2023-02-21T08:30:38;101152.75;;;9.54;100.00
47670;BME280;33408;52.062;11.722;2023-02-21T08:33:05;101147.63;;;9.43;100.00
47670;BME280;33408;52.062;11.722;2023-02-21T08:35:31;101155.38;;;9.46;100.00
47670;BME280;33408;52.062;11.722;2023-02-21T08:37:58;101155.38;;;9.46;100.00
47670;BME280;33408;52.062;11.722;2023-02-21T08:40:28;101157.09;;;9.49;100.00
47670;BME280;33408;52.062;11.722;2023-02-21T08:42:55;101150.19;;;9.51;100.00
47670;BME280;33408;52.062;11.722;2023-02-21T08:45:24;101153.66;;;9.52;100.00
47670;BME280;33408;52.062;11.722;2023-02-21T08:47:53;101140.69;;;9.55;100.00
47670;BME280;33408;52.062;11.722;2023-02-21T08:50:21;101156.16;;;9.58;100.00
47670;BME280;33408;52.062;11.722;2023-02-21T08:52:49;101158.81;;;9.55;100.00
47670;BME280;33408;52.062;11.722;2023-02-21T08:55:19;101163.06;;;9.59;100.00
47670;BME280;33408;52.062;11.722;2023-02-21T08:57:47;101162.19;;;9.61;100.00
47670;BME280;33408;52.062;11.722;2023-02-21T09:00:15;101150.13;;;9.59;100.00
47670;BME280;33408;52.062;11.722;2023-02-21T09:02:42;101161.31;;;9.61;100.00
47670;BME280;33408;52.062;11.722;2023-02-21T09:05:12;101162.97;;;9.73;100.00
47670;BME280;33408;52.062;11.722;2023-02-21T09:07:39;101157.78;;;9.76;100.00
47670;BME280;33408;52.062;11.722;2023-02-21T09:10:06;101162.00;;;9.84;100.00
47670;BME280;33408;52.062;11.722;2023-02-21T09:12:34;101168.88;;;9.89;100.00
47670;BME280;33408;52.062;11.722;2023-02-21T09:15:02;101165.38;;;9.93;100.00
47670;BME280;33408;52.062;11.722;2023-02-21T09:17:28;101164.47;;;9.98;100.00
47670;BME280;33408;52.062;11.722;2023-02-21T09:19:58;101158.44;;;9.96;100.00
47670;BME280;33408;52.062;11.722;2023-02-21T09:22:26;101167.03;;;10.03;100.00
47670;BME280;33408;52.062;11.722;2023-02-21T09:24:53;101164.47;;;10.00;100.00
47670;BME280;33408;52.062;11.722;2023-02-21T09:27:19;101161.88;;;9.98;100.00
47670;BME280;33408;52.062;11.722;2023-02-21T09:30:01;101158.56;;;9.85;100.00
47670;BME280;33408;52.062;11.722;2023-02-21T09:32:28;101164.56;;;9.89;100.00
47670;BME280;33408;52.062;11.722;2023-02-21T09:34:54;101162.78;;;9.93;100.00
47670;BME280;33408;52.062;11.722;2023-02-21T09:37:21;101161.13;;;9.87;100.00
47670;BME280;33408;52.062;11.722;2023-02-21T09:39:49;101174.09;;;9.82;100.00
47670;BME280;33408;52.062;11.722;2023-02-21T09:42:16;101171.50;;;9.87;100.00
47670;BME280;33408;52.062;11.722;2023-02-21T09:44:44;101174.94;;;9.86;100.00
47670;BME280;33408;52.062;11.722;2023-02-21T09:47:16;101181.88;;;9.81;100.00
47670;BME280;33408;52.062;11.722;2023-02-21T09:49:46;101180.97;;;9.83;100.00
47670;BME280;33408;52.062;11.722;2023-02-21T09:52:29;101187.09;;;9.76;100.00
47670;BME280;33408;52.062;11.722;2023-02-21T09:55:00;101187.91;;;9.84;100.00
47670;BME280;33408;52.062;11.722;2023-02-21T09:57:28;101186.19;;;9.80;100.00
47670;BME280;33408;52.062;11.722;2023-02-21T09:59:54;101188.72;;;9.86;100.00
47670;BME280;33408;52.062;11.722;2023-02-21T10:02:33;101188.72;;;9.88;100.00
47670;BME280;33408;52.062;11.722;2023-02-21T10:05:07;101188.66;;;9.94;100.00
47670;BME280;33408;52.062;11.722;2023-02-21T10:07:44;101182.63;;;9.97;100.00
47670;BME280;33408;52.062;11.722;2023-02-21T10:10:18;101185.00;;;10.20;100.00
47670;BME280;33408;52.062;11.722;2023-02-21T10:12:53;101185.75;;;10.33;100.00
47670;BME280;33408;52.062;11.722;2023-02-21T10:15:35;101188.28;;;10.40;100.00
47670;BME280;33408;52.062;11.722;2023-02-21T10:18:05;101191.69;;;10.46;100.00
47670;BME280;33408;52.062;11.722;2023-02-21T10:20:37;101186.41;;;10.55;100.00
47670;BME280;33408;52.062;11.722;2023-02-21T10:23:13;101187.31;;;10.49;100.00
47670;BME280;33408;52.062;11.722;2023-02-21T10:25:44;101187.44;;;10.40;100.00
47670;BME280;33408;52.062;11.722;2023-02-21T10:28:16;101197.03;;;10.26;100.00
47670;BME280;33408;52.062;11.722;2023-02-21T10:30:44;101201.28;;;10.36;100.00
47670;BME280;33408;52.062;11.722;2023-02-21T10:33:11;101190.09;;;10.29;100.00
47670;BME280;33408;52.062;11.722;2023-02-21T10:35:38;101195.31;;;10.23;100.00
47670;BME280;33408;52.062;11.722;2023-02-21T10:38:06;101198.69;;;10.31;100.00
47670;BME280;33408;52.062;11.722;2023-02-21T10:40:36;101203.03;;;10.31;100.00
47670;BME280;33408;52.062;11.722;2023-02-21T10:43:08;101201.28;;;10.34;100.00
47670;BME280;33408;52.062;11.722;2023-02-21T10:45:39;101203.91;;;10.33;100.00
47670;BME280;33408;52.062;11.722;2023-02-21T10:48:08;101210.84;;;10.28;100.00
47670;BME280;33408;52.062;11.722;2023-02-21T10:50:38;101212.63;;;10.21;100.00
47670;BME280;33408;52.062;11.722;2023-02-21T10:53:06;101208.28;;;10.25;100.00
47670;BME280;33408;52.062;11.722;2023-02-21T10:55:33;101222.09;;;10.23;100.00
47670;BME280;33408;52.062;11.722;2023-02-21T10:58:07;101220.41;;;10.19;100.00
47670;BME280;33408;52.062;11.722;2023-02-21T11:00:36;101215.22;;;10.19;100.00
47670;BME280;33408;52.062;11.722;2023-02-21T11:03:06;101220.38;;;10.24;100.00
47670;BME280;33408;52.062;11.722;2023-02-21T11:05:37;101209.09;;;10.27;100.00
47670;BME280;33408;52.062;11.722;2023-02-21T11:08:06;101217.78;;;10.26;100.00
47670;BME280;33408;52.062;11.722;2023-02-21T11:10:34;101215.19;;;10.26;100.00
47670;BME280;33408;52.062;11.722;2023-02-21T11:13:12;101214.22;;;10.39;100.00
47670;BME280;33408;52.062;11.722;2023-02-21T11:15:39;101219.38;;;10.40;100.00
47670;BME280;33408;52.062;11.722;2023-02-21T11:18:12;101213.25;;;10.46;100.00
47670;BME280;33408;52.062;11.722;2023-02-21T11:20:40;101208.91;;;10.51;100.00
47670;BME280;33408;52.062;11.722;2023-02-21T11:23:23;101209.78;;;10.50;100.00
47670;BME280;33408;52.062;11.722;2023-02-21T11:25:57;101210.59;;;10.54;100.00
47670;BME280;33408;52.062;11.722;2023-02-21T11:28:27;101204.53;;;10.55;100.00
47670;BME280;33408;52.062;11.722;2023-02-21T11:31:07;101210.53;;;10.60;100.00
47670;BME280;33408;52.062;11.722;2023-02-21T11:33:39;101205.38;;;10.58;100.00
47670;BME280;33408;52.062;11.722;2023-02-21T11:36:10;101210.50;;;10.63;100.00
47670;BME280;33408;52.062;11.722;2023-02-21T11:38:38;101203.53;;;10.67;100.00
47670;BME280;33408;52.062;11.722;2023-02-21T11:41:16;101207.97;;;10.58;100.00
47670;BME280;33408;52.062;11.722;2023-02-21T11:43:48;101206.13;;;10.67;100.00
47670;BME280;33408;52.062;11.722;2023-02-21T11:46:18;101195.59;;;10.82;100.00
47670;BME280;33408;52.062;11.722;2023-02-21T11:49:00;101184.34;;;10.82;100.00
47670;BME280;33408;52.062;11.722;2023-02-21T11:51:33;101201.66;;;10.80;100.00
47670;BME280;33408;52.062;11.722;2023-02-21T11:54:06;101189.47;;;10.88;100.00
47670;BME280;33408;52.062;11.722;2023-02-21T11:56:39;101184.25;;;10.91;100.00
47670;BME280;33408;52.062;11.722;2023-02-21T11:59:18;101197.13;;;10.99;100.00
47670;BME280;33408;52.062;11.722;2023-02-21T12:01:55;101199.66;;;11.03;100.00
47670;BME280;33408;52.062;11.722;2023-02-21T12:04:40;101183.13;;;11.09;100.00
47670;BME280;33408;52.062;11.722;2023-02-21T12:07:15;101178.59;;;11.25;100.00
47670;BME280;33408;52.062;11.722;2023-02-21T12:09:47;101187.09;;;11.35;100.00
47670;BME280;33408;52.062;11.722;2023-02-21T12:12:29;101182.63;;;11.44;100.00
47670;BME280;33408;52.062;11.722;2023-02-21T12:15:07;101172.16;;;11.52;100.00
47670;BME280;33408;52.062;11.722;2023-02-21T12:17:58;101187.47;;;11.71;100.00
47670;BME280;33408;52.062;11.722;2023-02-21T12:20:49;101174.75;;;11.50;100.00
47670;BME280;33408;52.062;11.722;2023-02-21T12:23:25;101181.28;;;11.76;100.00
47670;BME280;33408;52.062;11.722;2023-02-21T12:26:06;101173.00;;;11.53;100.00
47670;BME280;33408;52.062;11.722;2023-02-21T12:28:46;101179.03;;;11.56;100.00
47670;BME280;33408;52.062;11.722;2023-02-21T12:31:26;101171.88;;;11.71;100.00
47670;BME280;33408;52.062;11.722;2023-02-21T12:34:08;101171.09;;;11.64;100.00
47670;BME280;33408;52.062;11.722;2023-02-21T12:36:54;101164.91;;;11.73;100.00
47670;BME280;33408;52.062;11.722;2023-02-21T12:39:36;101172.84;;;11.62;100.00
47670;BME280;33408;52.062;11.722;2023-02-21T12:42:25;101160.13;;;11.46;100.00
47670;BME280;33408;52.062;11.722;2023-02-21T12:45:06;101160.88;;;11.55;100.00
47670;BME280;33408;52.062;11.722;2023-02-21T12:47:52;101179.09;;;11.52;100.00
47670;BME280;33408;52.062;11.722;2023-02-21T12:50:23;101163.41;;;11.59;100.00
47670;BME280;33408;52.062;11.722;2023-02-21T12:52:55;101170.38;;;11.54;100.00
47670;BME280;33408;52.062;11.722;2023-02-21T12:55:30;101171.34;;;11.48;100.00
47670;BME280;33408;52.062;11.722;2023-02-21T12:58:03;101173.91;;;11.50;100.00
47670;BME280;33408;52.062;11.722;2023-02-21T13:00:38;101173.91;;;11.52;100.00
47670;BME280;33408;52.062;11.722;2023-02-21T13:03:12;101170.25;;;11.62;100.00
47670;BME280;33408;52.062;11.722;2023-02-21T13:05:44;101168.41;;;11.70;100.00
47670;BME280;33408;52.062;11.722;2023-02-21T13:08:16;101172.56;;;11.82;100.00
47670;BME280;33408;52.062;11.722;2023-02-21T13:10:51;101172.78;;;11.66;100.00
47670;BME280;33408;52.062;11.722;2023-02-21T13:13:21;101164.16;;;11.66;100.00
47670;BME280;33408;52.062;11.722;2023-02-21T13:15:50;101163.13;;;11.75;100.00